createdAt,value
2022-12-31T00:02:18.211Z,94109.00
2022-12-31T00:06:34.289Z,94127.00
2022-12-31T00:10:41.706Z,94138.00
2022-12-31T00:14:43.784Z,94136.00
2022-12-31T00:18:47.452Z,94141.00
2022-12-31T00:22:49.405Z,94145.00
2022-12-31T00:27:43.305Z,94152.00
2022-12-31T00:31:45.328Z,94146.00
2022-12-31T00:35:49.451Z,94157.00
2022-12-31T00:39:51.421Z,94156.00
2022-12-31T00:43:53.976Z,94165.00
2022-12-31T00:47:56.039Z,94173.00
2022-12-31T00:51:57.969Z,94177.00
2022-12-31T00:56:19.943Z,94172.00
2022-12-31T01:00:21.991Z,94171.00
2022-12-31T01:04:23.979Z,94170.00
2022-12-31T01:08:25.926Z,94170.00
2022-12-31T01:12:54.711Z,94168.00
2022-12-31T01:16:56.662Z,94187.00
2022-12-31T01:21:15.537Z,94189.00
2022-12-31T01:25:17.494Z,94173.00
2022-12-31T01:29:20.446Z,94192.00
2022-12-31T01:33:22.576Z,94188.00
2022-12-31T01:37:28.299Z,94201.00
2022-12-31T01:41:37.075Z,94219.00
2022-12-31T01:45:43.775Z,94203.00
2022-12-31T01:50:19.958Z,94219.00
2022-12-31T01:54:24.164Z,94239.00
2022-12-31T01:58:29.739Z,94223.00
2022-12-31T02:02:34.379Z,94231.00
2022-12-31T02:06:45.493Z,94225.00
2022-12-31T02:10:47.565Z,94239.00
2022-12-31T02:15:17.227Z,94240.00
2022-12-31T02:19:55.481Z,94251.00
2022-12-31T02:24:45.470Z,94245.00
2022-12-31T02:29:08.546Z,94252.00
2022-12-31T02:33:22.378Z,94233.00
2022-12-31T02:37:27.987Z,94245.00
2022-12-31T02:41:49.376Z,94251.00
2022-12-31T02:46:02.767Z,94263.00
2022-12-31T02:50:26.492Z,94259.00
2022-12-31T02:54:31.632Z,94256.00
2022-12-31T02:59:23.250Z,94264.00
2022-12-31T03:03:27.373Z,94266.00
2022-12-31T03:07:34.730Z,94261.00
2022-12-31T03:16:15.603Z,94263.00
2022-12-31T03:21:15.672Z,94269.00
2022-12-31T03:25:36.432Z,94285.00
2022-12-31T03:29:38.412Z,94266.00
2022-12-31T03:33:41.695Z,94300.00
2022-12-31T03:37:43.711Z,94308.00
2022-12-31T03:41:45.875Z,94309.00
2022-12-31T03:45:52.547Z,94312.00
2022-12-31T03:49:54.648Z,94320.00
2022-12-31T03:55:05.907Z,94327.00
2022-12-31T03:59:07.921Z,94307.00
2022-12-31T04:03:12.333Z,94321.00
2022-12-31T04:07:14.334Z,94306.00
2022-12-31T04:11:21.052Z,94308.00
2022-12-31T04:15:23.275Z,94303.00
2022-12-31T04:19:25.257Z,94305.00
2022-12-31T04:23:31.962Z,94305.00
2022-12-31T04:27:33.900Z,94324.00
2022-12-31T04:31:35.887Z,94329.00
2022-12-31T04:35:38.896Z,94321.00
2022-12-31T04:39:40.812Z,94321.00
2022-12-31T04:44:13.692Z,94322.00
2022-12-31T04:48:15.885Z,94329.00
2022-12-31T04:52:17.871Z,94329.00
2022-12-31T04:56:26.497Z,94337.00
2022-12-31T05:00:28.372Z,94329.00
2022-12-31T05:04:30.409Z,94341.00
2022-12-31T05:08:34.853Z,94330.00
2022-12-31T05:12:36.726Z,94337.00
2022-12-31T05:16:38.732Z,94343.00
2022-12-31T05:20:47.656Z,94354.00
2022-12-31T05:24:52.234Z,94353.00
2022-12-31T05:28:56.673Z,94339.00
2022-12-31T05:32:58.622Z,94343.00
2022-12-31T05:37:00.529Z,94352.00
2022-12-31T05:41:05.004Z,94356.00
2022-12-31T05:45:07.447Z,94369.00
2022-12-31T05:49:09.515Z,94377.00
2022-12-31T05:53:11.702Z,94384.00
2022-12-31T05:57:14.372Z,94380.00
2022-12-31T06:01:16.396Z,94379.00
2022-12-31T06:05:24.174Z,94372.00
2022-12-31T06:09:27.969Z,94391.00
2022-12-31T06:13:29.962Z,94398.00
2022-12-31T06:17:49.428Z,94420.00
2022-12-31T06:21:51.392Z,94423.00
2022-12-31T06:25:53.561Z,94432.00
2022-12-31T06:29:55.452Z,94418.00
2022-12-31T06:34:04.086Z,94410.00
2022-12-31T06:38:05.999Z,94404.00
2022-12-31T06:42:07.937Z,94400.00
2022-12-31T06:46:13.025Z,94410.00
2022-12-31T06:50:16.185Z,94408.00
2022-12-31T06:54:18.221Z,94415.00
2022-12-31T06:58:20.450Z,94403.00
2022-12-31T07:03:01.756Z,94410.00
2022-12-31T07:07:19.951Z,94420.00
2022-12-31T07:11:23.710Z,94415.00
2022-12-31T07:15:49.547Z,94424.00
2022-12-31T07:20:11.668Z,94439.00
2022-12-31T07:24:14.280Z,94440.00
2022-12-31T07:28:44.775Z,94438.00
2022-12-31T07:33:10.842Z,94452.00
2022-12-31T07:37:44.775Z,94462.00
2022-12-31T07:41:59.071Z,94475.00
2022-12-31T07:46:15.671Z,94485.00
2022-12-31T07:50:48.723Z,94491.00
2022-12-31T07:54:51.013Z,94490.00
2022-12-31T07:59:17.339Z,94494.00
2022-12-31T08:03:30.726Z,94505.00
2022-12-31T08:08:07.099Z,94504.00
2022-12-31T08:12:09.368Z,94501.00
2022-12-31T08:16:13.175Z,94495.00
2022-12-31T08:20:17.142Z,94488.00
2022-12-31T08:24:38.088Z,94488.00
2022-12-31T08:29:06.168Z,94481.00
2022-12-31T08:33:27.784Z,94483.00
2022-12-31T08:38:12.818Z,94494.00
2022-12-31T08:42:41.142Z,94505.00
2022-12-31T08:46:58.793Z,94524.00
2022-12-31T08:51:05.585Z,94531.00
2022-12-31T08:55:08.837Z,94537.00
2022-12-31T08:59:52.341Z,94549.00
2022-12-31T09:04:06.396Z,94548.00
2022-12-31T09:08:13.917Z,94539.00
2022-12-31T09:12:46.307Z,94548.00
2022-12-31T09:16:58.774Z,94554.00
2022-12-31T09:21:00.969Z,94553.00
2022-12-31T09:25:19.484Z,94567.00
2022-12-31T09:29:38.806Z,94581.00
2022-12-31T09:34:25.427Z,94568.00
2022-12-31T09:39:11.345Z,94563.00
2022-12-31T09:43:58.941Z,94559.00
2022-12-31T09:48:34.739Z,94551.00
2022-12-31T09:53:02.006Z,94560.00
2022-12-31T09:57:39.332Z,94562.00
2022-12-31T10:02:12.273Z,94563.00
2022-12-31T10:06:33.186Z,94552.00
2022-12-31T10:10:47.065Z,94558.00
2022-12-31T10:15:45.364Z,94542.00
2022-12-31T10:20:24.675Z,94534.00
2022-12-31T10:24:43.060Z,94542.00
2022-12-31T10:29:30.203Z,94545.00
2022-12-31T10:33:53.800Z,94536.00
2022-12-31T10:38:22.632Z,94523.00
2022-12-31T10:42:52.902Z,94498.00
2022-12-31T10:47:05.045Z,94523.00
2022-12-31T10:51:31.367Z,94533.00
2022-12-31T10:56:11.162Z,94521.00
2022-12-31T11:00:27.429Z,94529.00
2022-12-31T11:04:38.292Z,94532.00
2022-12-31T11:09:34.517Z,94506.00
2022-12-31T11:13:57.215Z,94522.00
2022-12-31T11:18:33.807Z,94524.00
2022-12-31T11:23:20.036Z,94509.00
2022-12-31T11:27:36.271Z,94467.00
2022-12-31T11:31:41.243Z,94458.00
2022-12-31T11:35:57.466Z,94476.00
2022-12-31T11:40:05.262Z,94479.00
2022-12-31T11:44:16.658Z,94483.00
2022-12-31T11:48:36.403Z,94478.00
2022-12-31T11:52:52.123Z,94482.00
2022-12-31T11:57:04.323Z,94484.00
2022-12-31T12:01:22.796Z,94485.00
2022-12-31T12:05:25.892Z,94473.00
2022-12-31T12:10:18.236Z,94493.00
2022-12-31T12:14:22.196Z,94489.00
2022-12-31T12:18:34.851Z,94491.00
2022-12-31T12:22:37.753Z,94496.00
2022-12-31T12:27:36.824Z,94507.00
2022-12-31T12:31:41.767Z,94505.00
2022-12-31T12:35:47.625Z,94496.00
2022-12-31T12:40:03.542Z,94507.00
2022-12-31T12:44:16.819Z,94515.00
2022-12-31T12:48:37.135Z,94512.00
2022-12-31T12:53:12.161Z,94500.00
2022-12-31T12:57:34.802Z,94514.00
2022-12-31T13:01:42.897Z,94505.00
2022-12-31T13:06:08.885Z,94511.00
2022-12-31T13:11:06.255Z,94529.00
2022-12-31T13:15:32.880Z,94536.00
2022-12-31T13:19:44.791Z,94532.00
2022-12-31T13:24:04.157Z,94531.00
2022-12-31T13:28:11.590Z,94528.00
2022-12-31T13:33:00.320Z,94527.00
2022-12-31T13:37:40.780Z,94526.00
2022-12-31T13:42:08.057Z,94521.00
2022-12-31T13:46:15.917Z,94529.00
2022-12-31T13:50:33.128Z,94530.00
2022-12-31T13:54:38.429Z,94534.00
2022-12-31T13:58:58.571Z,94524.00
2022-12-31T14:03:22.714Z,94528.00
2022-12-31T14:07:52.463Z,94531.00
2022-12-31T14:12:32.881Z,94526.00
2022-12-31T14:16:51.084Z,94527.00
2022-12-31T14:21:23.899Z,94532.00
2022-12-31T14:25:31.549Z,94539.00
2022-12-31T14:29:48.251Z,94538.00
2022-12-31T14:34:23.077Z,94545.00
2022-12-31T14:39:06.235Z,94540.00
2022-12-31T14:49:02.796Z,94553.00
2022-12-31T14:53:30.963Z,94549.00
2022-12-31T14:58:25.337Z,94546.00
2022-12-31T15:02:32.728Z,94546.00
2022-12-31T15:06:53.997Z,94562.00
2022-12-31T15:11:36.880Z,94570.00
2022-12-31T15:16:00.759Z,94581.00
2022-12-31T15:20:34.742Z,94574.00
2022-12-31T15:24:46.662Z,94579.00
2022-12-31T15:29:16.290Z,94589.00
2022-12-31T15:33:20.476Z,94597.00
2022-12-31T15:37:35.280Z,94583.00
2022-12-31T15:42:18.601Z,94584.00
2022-12-31T15:46:20.090Z,94587.00
2022-12-31T15:50:25.482Z,94595.00
2022-12-31T15:54:45.733Z,94605.00
2022-12-31T15:58:50.177Z,94606.00
2022-12-31T16:02:55.240Z,94607.00
2022-12-31T16:07:03.140Z,94601.00
2022-12-31T16:11:08.870Z,94606.00
2022-12-31T16:15:30.916Z,94609.00
2022-12-31T16:19:36.305Z,94613.00
2022-12-31T16:23:49.854Z,94608.00
2022-12-31T16:27:53.985Z,94605.00
2022-12-31T16:32:22.788Z,94601.00
2022-12-31T16:36:24.708Z,94603.00
2022-12-31T16:46:36.439Z,94613.00
2022-12-31T16:50:51.490Z,94617.00
2022-12-31T16:54:55.607Z,94623.00
2022-12-31T16:59:06.332Z,94615.00
2022-12-31T17:03:19.337Z,94613.00
2022-12-31T17:07:30.805Z,94619.00
2022-12-31T17:11:32.774Z,94614.00
2022-12-31T17:15:43.304Z,94602.00
2022-12-31T17:19:49.102Z,94611.00
2022-12-31T17:23:55.567Z,94617.00
2022-12-31T17:28:08.185Z,94619.00
2022-12-31T17:32:36.308Z,94622.00
2022-12-31T17:36:38.671Z,94614.00
2022-12-31T17:41:08.506Z,94625.00
2022-12-31T17:45:21.616Z,94625.00
2022-12-31T17:49:30.817Z,94616.00
2022-12-31T17:53:33.149Z,94619.00
2022-12-31T17:57:56.360Z,94619.00
2022-12-31T18:02:01.551Z,94618.00
2022-12-31T18:06:06.236Z,94608.00
2022-12-31T18:10:10.277Z,94605.00
2022-12-31T18:14:29.799Z,94616.00
2022-12-31T18:18:35.958Z,94616.00
2022-12-31T18:22:43.719Z,94614.00
2022-12-31T18:26:53.275Z,94611.00
2022-12-31T18:31:00.744Z,94611.00
2022-12-31T18:35:08.128Z,94620.00
2022-12-31T18:39:12.035Z,94619.00
2022-12-31T18:43:22.241Z,94611.00
2022-12-31T18:47:31.412Z,94608.00
2022-12-31T18:51:41.435Z,94606.00
2022-12-31T18:55:54.810Z,94601.00
2022-12-31T18:59:56.837Z,94599.00
2022-12-31T19:04:26.607Z,94597.00
2022-12-31T19:08:31.917Z,94594.00
2022-12-31T19:13:32.359Z,94591.00
2022-12-31T19:17:34.324Z,94577.00
2022-12-31T19:21:38.869Z,94583.00
2022-12-31T19:25:40.786Z,94587.00
2022-12-31T19:30:14.297Z,94588.00
2022-12-31T19:34:16.480Z,94591.00
2022-12-31T19:38:24.273Z,94582.00
2022-12-31T19:42:26.241Z,94589.00
2022-12-31T19:46:32.670Z,94591.00
2022-12-31T19:50:37.010Z,94584.00
2022-12-31T19:54:38.962Z,94586.00
2022-12-31T19:59:12.909Z,94595.00
2022-12-31T20:03:15.818Z,94592.00
2022-12-31T20:07:25.307Z,94586.00
2022-12-31T20:11:29.018Z,94584.00
2022-12-31T20:15:47.770Z,94580.00
2022-12-31T20:19:49.896Z,94580.00
2022-12-31T20:24:05.375Z,94583.00
2022-12-31T20:28:07.359Z,94575.00
2022-12-31T20:32:13.619Z,94586.00
2022-12-31T20:36:17.546Z,94594.00
2022-12-31T20:40:20.319Z,94591.00
2022-12-31T20:44:22.322Z,94586.00
2022-12-31T20:48:24.300Z,94590.00
2022-12-31T20:52:27.465Z,94590.00
2022-12-31T20:56:32.651Z,94581.00
2022-12-31T21:00:36.656Z,94585.00
2022-12-31T21:04:38.667Z,94581.00
2022-12-31T21:08:42.285Z,94570.00
2022-12-31T21:12:44.418Z,94576.00
2022-12-31T21:16:46.379Z,94586.00
2022-12-31T21:20:52.064Z,94581.00
2022-12-31T21:24:54.116Z,94582.00
2022-12-31T21:30:01.644Z,94586.00
2022-12-31T21:33:59.788Z,94599.00
2022-12-31T21:38:05.082Z,94594.00
2022-12-31T21:42:07.024Z,94595.00
2022-12-31T22:08:48.732Z,94593.00
2022-12-31T22:29:47.578Z,94578.00
2022-12-31T22:33:49.548Z,94574.00
2022-12-31T22:38:16.484Z,94569.00
2022-12-31T22:42:18.365Z,94567.00
2022-12-31T22:46:27.007Z,94574.00
2022-12-31T22:50:28.963Z,94571.00
2022-12-31T22:54:33.133Z,94573.00
2022-12-31T22:58:35.149Z,94580.00
2022-12-31T23:02:41.895Z,94570.00
2022-12-31T23:06:47.377Z,94576.00
2022-12-31T23:11:11.564Z,94566.00
2022-12-31T23:15:34.121Z,94555.00
2022-12-31T23:24:26.255Z,94561.00
2022-12-31T23:28:37.015Z,94563.00
2022-12-31T23:32:38.989Z,94561.00
2022-12-31T23:36:40.934Z,94560.00
2022-12-31T23:40:49.045Z,94552.00
2022-12-31T23:44:50.937Z,94544.00
2022-12-31T23:49:14.813Z,94550.00
2022-12-31T23:53:16.847Z,94549.00
2022-12-31T23:57:42.170Z,94546.00
